createdAt,value
2023-07-10T00:01:02.653Z,6.40
2023-07-10T00:03:29.972Z,5.97
2023-07-10T00:05:58.075Z,5.93
2023-07-10T00:08:25.065Z,7.03
2023-07-10T00:10:51.998Z,7.03
2023-07-10T00:13:23.161Z,5.27
2023-07-10T00:15:51.935Z,6.03
2023-07-10T00:18:23.057Z,6.47
2023-07-10T00:20:50.871Z,6.27
2023-07-10T00:23:18.826Z,8.60
2023-07-10T00:25:45.974Z,5.23
2023-07-10T00:28:21.603Z,5.40
2023-07-10T00:30:51.051Z,5.80
2023-07-10T00:33:20.202Z,5.97
2023-07-10T00:35:47.859Z,5.73
2023-07-10T00:38:26.506Z,6.43
2023-07-10T00:40:54.131Z,5.87
2023-07-10T00:43:37.210Z,6.63
2023-07-10T00:46:21.140Z,5.20
2023-07-10T00:49:03.802Z,5.50
2023-07-10T00:51:40.197Z,6.07
2023-07-10T00:54:19.077Z,7.47
2023-07-10T00:56:46.623Z,6.70
2023-07-10T00:59:25.581Z,7.57
2023-07-10T01:02:14.161Z,8.03
2023-07-10T01:04:43.743Z,6.03
2023-07-10T01:07:16.399Z,6.63
2023-07-10T01:09:51.354Z,6.37
2023-07-10T01:12:19.176Z,6.07
2023-07-10T01:14:46.237Z,6.60
2023-07-10T01:17:13.072Z,5.73
2023-07-10T01:19:42.158Z,5.60
2023-07-10T01:22:12.283Z,7.67
2023-07-10T01:24:39.453Z,6.87
2023-07-10T01:27:13.055Z,5.50
2023-07-10T01:29:45.431Z,6.20
2023-07-10T01:32:20.484Z,6.93
2023-07-10T01:35:01.215Z,6.90
2023-07-10T01:37:27.903Z,6.13
2023-07-10T01:39:55.611Z,6.37
2023-07-10T01:42:22.887Z,6.77
2023-07-10T01:44:51.312Z,6.50
2023-07-10T01:47:18.070Z,6.23
2023-07-10T01:49:46.614Z,6.67
2023-07-10T01:52:15.649Z,5.47
2023-07-10T01:54:50.411Z,5.53
2023-07-10T01:57:19.054Z,8.63
2023-07-10T01:59:45.742Z,7.83
2023-07-10T02:02:12.508Z,5.33
2023-07-10T02:04:39.243Z,6.63
2023-07-10T02:07:05.982Z,5.27
2023-07-10T02:09:33.546Z,5.83
2023-07-10T02:12:01.443Z,8.20
2023-07-10T02:14:30.390Z,6.80
2023-07-10T02:16:57.131Z,5.60
2023-07-10T02:19:24.143Z,6.27
2023-07-10T02:21:50.841Z,6.33
2023-07-10T02:24:17.557Z,5.53
2023-07-10T02:26:44.578Z,6.67
2023-07-10T02:29:11.654Z,6.17
2023-07-10T02:31:38.431Z,5.47
2023-07-10T02:34:05.171Z,5.53
2023-07-10T02:36:32.146Z,5.17
2023-07-10T02:38:59.119Z,6.83
2023-07-10T02:41:26.237Z,6.90
2023-07-10T02:43:52.906Z,6.60
2023-07-10T02:46:19.954Z,6.17
2023-07-10T02:48:47.832Z,6.73
2023-07-10T02:51:14.784Z,7.40
2023-07-10T02:53:42.951Z,5.33
2023-07-10T02:56:09.940Z,8.00
2023-07-10T02:58:36.978Z,5.70
2023-07-10T03:01:04.249Z,7.50
2023-07-10T03:03:31.775Z,6.17
2023-07-10T03:06:04.385Z,6.47
2023-07-10T03:08:31.578Z,5.80
2023-07-10T03:11:03.802Z,9.50
2023-07-10T03:13:30.924Z,8.03
2023-07-10T03:16:00.501Z,6.53
2023-07-10T03:18:27.533Z,5.53
2023-07-10T03:20:54.349Z,6.57
2023-07-10T03:23:21.336Z,7.23
2023-07-10T03:25:48.287Z,6.00
2023-07-10T03:28:15.967Z,8.97
2023-07-10T03:30:43.362Z,7.73
2023-07-10T03:33:15.669Z,28.63
2023-07-10T03:35:43.112Z,13.57
2023-07-10T03:38:10.691Z,10.50
2023-07-10T03:40:37.466Z,11.60
2023-07-10T03:43:04.532Z,12.53
2023-07-10T03:45:32.172Z,18.87
2023-07-10T03:47:59.168Z,19.17
2023-07-10T03:50:25.926Z,18.30
2023-07-10T03:52:52.921Z,14.90
2023-07-10T03:55:19.876Z,10.97
2023-07-10T03:57:46.521Z,14.33
2023-07-10T04:00:13.880Z,12.33
2023-07-10T04:02:40.618Z,12.53
2023-07-10T04:05:07.815Z,8.13
2023-07-10T04:07:34.516Z,6.57
2023-07-10T04:10:01.252Z,9.47
2023-07-10T04:12:28.696Z,8.00
2023-07-10T04:14:55.772Z,7.10
2023-07-10T04:17:22.798Z,7.27
2023-07-10T04:19:49.877Z,6.67
2023-07-10T04:22:16.551Z,6.33
2023-07-10T04:24:43.613Z,6.77
2023-07-10T04:27:10.698Z,6.47
2023-07-10T04:29:40.456Z,5.30
2023-07-10T04:32:09.314Z,8.37
2023-07-10T04:34:42.303Z,7.03
2023-07-10T04:37:09.013Z,6.37
2023-07-10T04:39:35.939Z,5.80
2023-07-10T04:42:02.889Z,9.73
2023-07-10T04:44:29.664Z,6.17
2023-07-10T04:46:56.349Z,9.00
2023-07-10T04:49:23.272Z,6.97
2023-07-10T04:51:49.987Z,6.93
2023-07-10T04:54:17.149Z,5.83
2023-07-10T04:56:51.971Z,5.77
2023-07-10T04:59:18.924Z,7.60
2023-07-10T05:01:45.780Z,7.53
2023-07-10T05:04:12.598Z,7.63
2023-07-10T05:06:39.303Z,9.33
2023-07-10T05:09:05.955Z,5.83
2023-07-10T05:11:32.821Z,5.30
2023-07-10T05:14:02.554Z,11.73
2023-07-10T05:16:43.675Z,8.20
2023-07-10T05:19:10.393Z,8.00
2023-07-10T05:21:37.098Z,8.07
2023-07-10T05:24:04.016Z,6.10
2023-07-10T05:26:30.730Z,7.43
2023-07-10T05:28:58.459Z,7.07
2023-07-10T05:31:25.146Z,6.73
2023-07-10T05:33:52.136Z,9.63
2023-07-10T05:36:19.454Z,7.00
2023-07-10T05:38:54.018Z,6.10
2023-07-10T05:41:21.329Z,5.70
2023-07-10T05:43:48.393Z,7.17
2023-07-10T05:46:16.629Z,5.67
2023-07-10T05:48:43.339Z,5.77
2023-07-10T05:51:10.044Z,6.57
2023-07-10T05:53:36.924Z,5.67
2023-07-10T05:56:04.638Z,9.23
2023-07-10T05:58:32.453Z,5.03
2023-07-10T06:01:00.986Z,9.20
2023-07-10T06:03:31.401Z,13.63
2023-07-10T06:06:08.112Z,15.37
2023-07-10T06:08:36.247Z,6.87
2023-07-10T06:11:03.582Z,8.27
2023-07-10T06:13:31.194Z,6.10
2023-07-10T06:15:59.731Z,6.80
2023-07-10T06:18:27.271Z,5.13
2023-07-10T06:20:56.163Z,7.35
2023-07-10T06:23:24.473Z,8.48
2023-07-10T06:25:52.261Z,13.35
2023-07-10T06:28:19.807Z,12.45
2023-07-10T06:30:55.434Z,10.05
2023-07-10T06:33:22.444Z,5.80
2023-07-10T06:35:49.363Z,13.68
2023-07-10T06:38:16.308Z,6.97
2023-07-10T06:40:43.055Z,6.18
2023-07-10T06:43:10.654Z,6.57
2023-07-10T06:45:37.648Z,7.32
2023-07-10T06:48:05.216Z,6.20
2023-07-10T06:50:31.911Z,6.40
2023-07-10T06:52:59.848Z,7.60
2023-07-10T06:55:30.042Z,6.28
2023-07-10T06:57:56.883Z,6.10
2023-07-10T07:00:23.944Z,6.45
2023-07-10T07:02:51.078Z,8.02
2023-07-10T07:05:17.944Z,8.75
2023-07-10T07:07:44.695Z,7.03
2023-07-10T07:10:14.442Z,6.90
2023-07-10T07:12:42.661Z,7.22
2023-07-10T07:15:11.320Z,5.60
2023-07-10T07:17:38.970Z,5.22
2023-07-10T07:20:06.491Z,5.97
2023-07-10T07:22:33.381Z,5.47
2023-07-10T07:25:00.055Z,5.65
2023-07-10T07:27:26.990Z,8.30
2023-07-10T07:29:55.080Z,5.40
2023-07-10T07:32:21.763Z,6.65
2023-07-10T07:34:48.513Z,5.50
2023-07-10T07:37:15.998Z,6.32
2023-07-10T07:39:42.922Z,5.40
2023-07-10T07:42:10.318Z,7.18
2023-07-10T07:44:37.270Z,5.90
2023-07-10T07:47:04.117Z,5.78
2023-07-10T07:49:30.822Z,7.10
2023-07-10T07:51:57.513Z,4.20
2023-07-10T07:54:24.191Z,4.63
2023-07-10T07:56:51.296Z,4.32
2023-07-10T07:59:19.510Z,4.65
2023-07-10T08:01:47.202Z,4.53
2023-07-10T08:04:14.225Z,4.95
2023-07-10T08:06:42.771Z,4.75
2023-07-10T08:09:10.902Z,6.30
2023-07-10T08:11:37.556Z,5.07
2023-07-10T08:14:04.257Z,5.85
2023-07-10T08:16:31.287Z,5.93
2023-07-10T08:18:58.054Z,5.82
2023-07-10T08:21:25.206Z,4.55
2023-07-10T08:23:51.887Z,7.85
2023-07-10T08:26:18.618Z,4.53
2023-07-10T08:28:45.659Z,5.72
2023-07-10T08:31:12.670Z,5.78
2023-07-10T08:33:40.180Z,6.18
2023-07-10T08:36:08.369Z,7.53
2023-07-10T08:38:37.130Z,10.38
2023-07-10T08:41:22.039Z,5.15
2023-07-10T08:43:49.675Z,10.23
2023-07-10T08:46:24.394Z,6.25
2023-07-10T08:49:10.298Z,13.73
2023-07-10T08:52:03.282Z,5.72
2023-07-10T08:54:30.081Z,4.47
2023-07-10T08:57:13.721Z,4.65
2023-07-10T08:59:48.314Z,7.03
2023-07-10T09:02:30.287Z,6.47
2023-07-10T09:05:01.176Z,4.95
2023-07-10T09:07:29.536Z,5.57
2023-07-10T09:10:00.266Z,5.28
2023-07-10T09:12:43.066Z,5.03
2023-07-10T09:15:14.220Z,8.50
2023-07-10T09:17:44.248Z,6.55
2023-07-10T09:20:12.152Z,7.30
2023-07-10T09:22:58.930Z,4.93
2023-07-10T09:25:26.328Z,5.93
2023-07-10T09:27:53.532Z,7.32
2023-07-10T09:30:31.594Z,9.70
2023-07-10T09:33:03.343Z,8.90
2023-07-10T09:35:31.236Z,6.57
2023-07-10T09:37:58.607Z,7.00
2023-07-10T09:40:49.591Z,8.80
2023-07-10T09:43:20.427Z,5.07
2023-07-10T09:45:57.646Z,5.93
2023-07-10T09:48:47.723Z,4.78
2023-07-10T09:51:14.730Z,5.35
2023-07-10T09:53:46.933Z,4.82
2023-07-10T09:56:30.747Z,4.32
2023-07-10T09:58:57.834Z,5.72
2023-07-10T10:01:29.803Z,6.78
2023-07-10T10:03:57.056Z,3.83
2023-07-10T10:06:27.147Z,7.47
2023-07-10T10:08:54.804Z,6.20
2023-07-10T10:11:37.621Z,3.83
2023-07-10T10:14:06.938Z,4.70
2023-07-10T10:16:52.424Z,6.57
2023-07-10T10:19:42.157Z,5.60
2023-07-10T10:22:13.964Z,3.60
2023-07-10T10:24:41.735Z,5.07
2023-07-10T10:27:25.313Z,3.97
2023-07-10T10:29:57.940Z,4.60
2023-07-10T10:32:48.517Z,4.22
2023-07-10T10:35:30.006Z,4.25
2023-07-10T10:38:29.672Z,3.78
2023-07-10T10:44:48.704Z,7.00
2023-07-10T10:47:27.339Z,4.65
2023-07-10T10:50:07.566Z,5.75
2023-07-10T10:53:00.804Z,5.32
2023-07-10T10:56:00.520Z,5.65
2023-07-10T10:59:10.213Z,5.63
2023-07-10T11:01:46.788Z,4.70
2023-07-10T11:04:27.098Z,5.97
2023-07-10T11:07:21.610Z,4.47
2023-07-10T11:09:56.088Z,6.57
2023-07-10T11:12:29.360Z,3.63
2023-07-10T11:15:05.268Z,4.63
2023-07-10T11:17:32.295Z,3.60
2023-07-10T11:20:00.341Z,5.90
2023-07-10T11:22:30.260Z,4.10
2023-07-10T11:24:57.424Z,6.35
2023-07-10T11:27:29.492Z,6.45
2023-07-10T11:29:57.872Z,4.03
2023-07-10T11:33:15.899Z,6.28
2023-07-10T11:36:11.483Z,5.95
2023-07-10T11:38:55.980Z,4.90
2023-07-10T11:41:30.017Z,3.90
2023-07-10T11:44:19.566Z,4.95
2023-07-10T11:46:58.873Z,6.95
2023-07-10T11:49:58.725Z,5.95
2023-07-10T11:52:28.498Z,5.20
2023-07-10T11:54:58.207Z,4.15
2023-07-10T11:57:30.820Z,4.30
2023-07-10T11:59:58.720Z,4.10
2023-07-10T12:02:45.544Z,3.63
2023-07-10T12:05:22.613Z,3.47
2023-07-10T12:08:03.991Z,5.85
2023-07-10T12:10:38.695Z,5.53
2023-07-10T12:13:24.806Z,3.65
2023-07-10T12:15:53.482Z,4.70
2023-07-10T12:18:30.452Z,3.78
2023-07-10T12:21:01.807Z,4.32
2023-07-10T12:23:29.048Z,4.35
2023-07-10T12:25:59.752Z,4.45
2023-07-10T12:28:30.283Z,6.05
2023-07-10T12:31:00.120Z,5.00
2023-07-10T12:33:41.734Z,4.75
2023-07-10T12:36:31.144Z,4.13
2023-07-10T12:39:00.738Z,3.95
2023-07-10T12:41:34.411Z,3.58
2023-07-10T12:44:19.339Z,5.30
2023-07-10T12:46:46.375Z,4.57
2023-07-10T12:49:17.546Z,3.92
2023-07-10T12:51:50.021Z,5.50
2023-07-10T12:54:23.114Z,5.15
2023-07-10T12:56:52.985Z,4.45
2023-07-10T12:59:27.238Z,4.68
2023-07-10T13:02:02.610Z,4.30
2023-07-10T13:04:38.779Z,5.60
2023-07-10T13:07:24.988Z,5.63
2023-07-10T13:10:02.244Z,4.90
2023-07-10T13:12:30.425Z,4.65
2023-07-10T13:14:59.417Z,4.30
2023-07-10T13:17:28.808Z,6.47
2023-07-10T13:20:08.288Z,4.03
2023-07-10T13:22:36.675Z,5.55
2023-07-10T13:25:11.457Z,4.05
2023-07-10T13:27:38.602Z,4.88
2023-07-10T13:30:14.987Z,4.22
2023-07-10T13:32:42.379Z,4.72
2023-07-10T13:35:10.916Z,4.82
2023-07-10T13:37:38.012Z,5.15
2023-07-10T13:40:05.355Z,6.63
2023-07-10T13:42:32.432Z,7.55
2023-07-10T13:44:59.211Z,5.35
2023-07-10T13:47:26.257Z,5.45
2023-07-10T13:49:53.694Z,8.38
2023-07-10T13:52:24.261Z,6.95
2023-07-10T13:54:51.464Z,5.68
2023-07-10T13:57:29.964Z,6.32
2023-07-10T14:00:01.857Z,6.57
2023-07-10T14:02:32.257Z,6.32
2023-07-10T14:05:01.310Z,5.75
2023-07-10T14:07:29.979Z,6.03
2023-07-10T14:09:59.543Z,6.20
2023-07-10T14:12:32.108Z,5.88
2023-07-10T14:15:00.835Z,6.93
2023-07-10T14:17:30.636Z,8.65
2023-07-10T14:19:58.184Z,5.88
2023-07-10T14:22:34.407Z,6.45
2023-07-10T14:25:01.360Z,7.30
2023-07-10T14:27:29.214Z,6.47
2023-07-10T14:29:57.409Z,6.25
2023-07-10T14:32:27.554Z,6.18
2023-07-10T14:34:54.767Z,6.85
2023-07-10T14:37:27.881Z,8.10
2023-07-10T14:39:55.081Z,6.97
2023-07-10T14:42:26.596Z,6.22
2023-07-10T14:44:53.360Z,6.78
2023-07-10T14:47:20.119Z,6.82
2023-07-10T14:49:47.374Z,7.63
2023-07-10T14:52:26.466Z,6.93
2023-07-10T14:54:55.842Z,7.40
2023-07-10T14:57:30.154Z,16.50
2023-07-10T14:59:58.257Z,6.95
2023-07-10T15:02:26.914Z,6.70
2023-07-10T15:04:54.726Z,7.85
2023-07-10T15:07:23.327Z,6.20
2023-07-10T15:09:51.532Z,6.82
2023-07-10T15:12:20.384Z,6.95
2023-07-10T15:14:50.260Z,8.23
2023-07-10T15:17:24.279Z,6.60
2023-07-10T15:19:52.944Z,7.05
2023-07-10T15:22:23.133Z,7.43
2023-07-10T15:24:50.489Z,9.35
2023-07-10T15:27:18.106Z,8.07
2023-07-10T15:29:45.356Z,8.20
2023-07-10T15:32:20.638Z,10.90
2023-07-10T15:34:49.745Z,7.40
2023-07-10T15:37:19.181Z,7.28
2023-07-10T15:39:48.640Z,7.57
2023-07-10T15:42:16.980Z,7.18
2023-07-10T15:44:44.837Z,8.25
2023-07-10T15:47:19.497Z,8.38
2023-07-10T15:49:46.368Z,7.30
2023-07-10T15:52:29.230Z,7.50
2023-07-10T15:54:56.101Z,7.68
2023-07-10T15:57:22.807Z,9.20
2023-07-10T15:59:49.784Z,7.35
2023-07-10T16:02:27.184Z,8.00
2023-07-10T16:04:55.648Z,7.90
2023-07-10T16:07:22.468Z,8.52
2023-07-10T16:09:49.252Z,9.20
2023-07-10T16:12:16.431Z,10.65
2023-07-10T16:14:43.275Z,8.40
2023-07-10T16:17:23.575Z,8.70
2023-07-10T16:19:50.345Z,10.90
2023-07-10T16:22:17.131Z,8.70
2023-07-10T16:24:44.113Z,9.48
2023-07-10T16:27:14.166Z,10.98
2023-07-10T16:29:45.064Z,9.43
2023-07-10T16:32:16.948Z,8.73
2023-07-10T16:34:44.892Z,10.27
2023-07-10T16:37:14.887Z,9.50
2023-07-10T16:39:42.219Z,10.73
2023-07-10T16:42:16.568Z,9.50
2023-07-10T16:44:44.183Z,8.98
2023-07-10T16:47:17.918Z,9.75
2023-07-10T16:49:46.124Z,10.75
2023-07-10T16:52:14.104Z,10.30
2023-07-10T16:54:41.144Z,9.00
2023-07-10T16:57:18.084Z,10.17
2023-07-10T16:59:45.514Z,9.87
2023-07-10T17:02:24.530Z,10.68
2023-07-10T17:04:55.465Z,10.03
2023-07-10T17:07:22.551Z,13.40
2023-07-10T17:09:50.990Z,9.77
2023-07-10T17:12:19.291Z,9.73
2023-07-10T17:14:49.304Z,10.73
2023-07-10T17:17:21.744Z,10.13
2023-07-10T17:19:49.325Z,9.10
2023-07-10T17:22:20.830Z,10.27
2023-07-10T17:24:47.959Z,11.43
2023-07-10T17:27:14.722Z,9.93
2023-07-10T17:29:41.766Z,9.90
2023-07-10T17:32:15.489Z,9.83
2023-07-10T17:34:42.335Z,10.50
2023-07-10T17:37:14.002Z,9.67
2023-07-10T17:39:41.106Z,10.00
2023-07-10T17:42:21.500Z,10.00
2023-07-10T17:44:48.350Z,10.07
2023-07-10T17:47:17.792Z,13.07
2023-07-10T17:49:45.114Z,10.87
2023-07-10T17:52:14.594Z,9.83
2023-07-10T17:54:42.866Z,9.80
2023-07-10T17:57:16.980Z,9.17
2023-07-10T17:59:46.277Z,9.13
2023-07-10T18:02:31.264Z,8.60
2023-07-10T18:04:58.076Z,12.40
2023-07-10T18:07:24.816Z,19.03
2023-07-10T18:09:51.804Z,13.57
2023-07-10T18:12:20.520Z,13.60
2023-07-10T18:14:50.228Z,10.17
2023-07-10T18:17:28.228Z,13.17
2023-07-10T18:19:55.807Z,13.03
2023-07-10T18:22:23.127Z,9.83
2023-07-10T18:24:49.949Z,10.07
2023-07-10T18:27:18.857Z,9.63
2023-07-10T18:29:45.899Z,9.30
2023-07-10T18:32:21.405Z,9.03
2023-07-10T18:34:50.830Z,8.83
2023-07-10T18:37:19.613Z,9.37
2023-07-10T18:39:46.596Z,10.97
2023-07-10T18:42:23.603Z,9.77
2023-07-10T18:44:50.478Z,8.60
2023-07-10T18:47:18.504Z,9.03
2023-07-10T18:49:45.330Z,8.17
2023-07-10T18:52:42.058Z,8.50
2023-07-10T18:55:18.317Z,9.37
2023-07-10T18:57:47.697Z,9.53
2023-07-10T19:00:20.081Z,8.23
2023-07-10T19:02:47.120Z,7.87
2023-07-10T19:05:14.220Z,8.40
2023-07-10T19:07:41.695Z,9.67
2023-07-10T19:10:17.334Z,9.33
2023-07-10T19:12:44.305Z,10.03
2023-07-10T19:15:12.450Z,8.63
2023-07-10T19:17:39.738Z,7.83
2023-07-10T19:20:16.016Z,8.00
2023-07-10T19:22:42.783Z,10.10
2023-07-10T19:25:14.646Z,10.50
2023-07-10T19:27:41.905Z,11.53
2023-07-10T19:30:16.506Z,9.80
2023-07-10T19:32:43.719Z,19.37
2023-07-10T19:35:18.042Z,7.60
2023-07-10T19:37:45.329Z,7.90
2023-07-10T19:40:23.207Z,9.60
2023-07-10T19:42:50.396Z,9.27
2023-07-10T19:45:17.195Z,7.90
2023-07-10T19:47:44.895Z,9.43
2023-07-10T19:50:20.971Z,9.10
2023-07-10T19:52:48.223Z,7.03
2023-07-10T19:55:25.129Z,7.93
2023-07-10T19:57:52.120Z,10.13
2023-07-10T20:00:22.578Z,8.10
2023-07-10T20:02:51.618Z,9.10
2023-07-10T20:05:18.582Z,7.57
2023-07-10T20:07:45.309Z,9.77
2023-07-10T20:10:23.222Z,7.47
2023-07-10T20:12:50.761Z,7.83
2023-07-10T20:15:18.050Z,10.20
2023-07-10T20:17:47.498Z,8.07
2023-07-10T20:20:25.644Z,9.07
2023-07-10T20:22:52.947Z,8.20
2023-07-10T20:25:19.851Z,9.27
2023-07-10T20:27:49.161Z,9.47
2023-07-10T20:30:21.396Z,8.03
2023-07-10T20:32:48.455Z,8.53
2023-07-10T20:35:17.272Z,8.33
2023-07-10T20:37:44.676Z,9.80
2023-07-10T20:40:16.307Z,8.83
2023-07-10T20:42:43.228Z,12.23
2023-07-10T20:45:14.937Z,10.23
2023-07-10T20:47:51.232Z,8.47
2023-07-10T20:50:18.947Z,7.00
2023-07-10T20:52:46.957Z,8.50
2023-07-10T20:55:13.995Z,6.60
2023-07-10T20:57:44.470Z,11.90
2023-07-10T21:00:14.889Z,8.17
2023-07-10T21:02:41.788Z,7.47
2023-07-10T21:05:10.194Z,7.00
2023-07-10T21:07:37.305Z,7.93
2023-07-10T21:10:04.789Z,8.17
2023-07-10T21:12:31.792Z,7.50
2023-07-10T21:14:58.802Z,7.13
2023-07-10T21:17:31.121Z,7.37
2023-07-10T21:19:58.170Z,7.03
2023-07-10T21:22:26.058Z,7.07
2023-07-10T21:24:52.840Z,7.43
2023-07-10T21:27:30.599Z,7.20
2023-07-10T21:30:20.189Z,9.23
2023-07-10T21:32:48.577Z,8.20
2023-07-10T21:35:27.250Z,8.23
2023-07-10T21:37:54.140Z,7.57
2023-07-10T21:40:21.298Z,7.97
2023-07-10T21:42:48.200Z,7.20
2023-07-10T21:45:16.715Z,7.10
2023-07-10T21:47:43.505Z,7.17
2023-07-10T21:50:15.413Z,6.63
2023-07-10T21:52:42.430Z,8.67
2023-07-10T21:55:13.556Z,7.27
2023-07-10T21:57:40.636Z,8.23
2023-07-10T22:00:09.651Z,9.87
2023-07-10T22:02:36.819Z,7.20
2023-07-10T22:05:15.413Z,6.90
2023-07-10T22:07:42.452Z,7.17
2023-07-10T22:10:09.558Z,6.30
2023-07-10T22:12:36.358Z,6.83
2023-07-10T22:15:03.612Z,6.63
2023-07-10T22:17:30.601Z,7.43
2023-07-10T22:19:57.769Z,7.50
2023-07-10T22:22:24.604Z,6.97
2023-07-10T22:24:51.402Z,6.73
2023-07-10T22:27:18.645Z,6.33
2023-07-10T22:29:47.375Z,6.60
2023-07-10T22:32:14.098Z,7.53
2023-07-10T22:34:40.923Z,7.27
2023-07-10T22:37:10.905Z,7.73
2023-07-10T22:39:37.644Z,6.70
2023-07-10T22:42:04.784Z,8.53
2023-07-10T22:44:31.655Z,7.53
2023-07-10T22:47:01.461Z,8.33
2023-07-10T22:49:28.361Z,7.10
2023-07-10T22:51:55.416Z,6.43
2023-07-10T22:54:22.469Z,6.27
2023-07-10T22:56:49.203Z,7.73
2023-07-10T22:59:20.209Z,6.47
2023-07-10T23:01:49.912Z,6.50
2023-07-10T23:04:18.745Z,7.40
2023-07-10T23:06:46.300Z,8.00
2023-07-10T23:09:13.082Z,8.07
2023-07-10T23:11:39.998Z,7.77
2023-07-10T23:14:08.037Z,6.27
2023-07-10T23:16:35.597Z,7.50
2023-07-10T23:19:02.613Z,7.30
2023-07-10T23:21:30.134Z,6.50
2023-07-10T23:23:57.254Z,9.30
2023-07-10T23:26:27.334Z,8.30
2023-07-10T23:28:54.864Z,6.70
2023-07-10T23:31:27.577Z,6.60
2023-07-10T23:33:55.577Z,7.67
2023-07-10T23:36:26.057Z,8.33
2023-07-10T23:38:53.601Z,6.63
2023-07-10T23:41:20.702Z,7.13
2023-07-10T23:43:47.781Z,7.23
2023-07-10T23:46:15.173Z,7.27
2023-07-10T23:48:43.148Z,7.10
2023-07-10T23:51:10.443Z,8.73
2023-07-10T23:53:37.580Z,7.03
2023-07-10T23:56:05.102Z,7.57
2023-07-10T23:58:32.150Z,6.63
